createdAt,value
2023-05-14T00:00:31.867Z,12.50
2023-05-14T00:01:31.810Z,14.00
2023-05-14T00:02:31.925Z,14.60
2023-05-14T00:03:31.894Z,14.10
2023-05-14T00:04:31.808Z,14.70
2023-05-14T00:05:31.744Z,13.80
2023-05-14T00:06:31.738Z,15.00
2023-05-14T00:07:31.746Z,15.40
2023-05-14T00:08:31.693Z,18.60
2023-05-14T00:09:31.684Z,16.60
2023-05-14T00:10:31.677Z,18.80
2023-05-14T00:11:31.671Z,17.80
2023-05-14T00:12:31.692Z,19.70
2023-05-14T00:13:31.630Z,20.60
2023-05-14T00:14:31.602Z,21.10
2023-05-14T00:15:34.119Z,21.60
2023-05-14T00:16:31.648Z,21.00
2023-05-14T00:17:31.626Z,20.60
2023-05-14T00:18:31.581Z,21.30
2023-05-14T00:19:31.622Z,18.90
2023-05-14T00:20:31.564Z,18.10
2023-05-14T00:21:31.511Z,18.10
2023-05-14T00:22:31.495Z,18.40
2023-05-14T00:23:31.521Z,19.40
2023-05-14T00:24:31.502Z,20.70
2023-05-14T00:25:31.465Z,21.10
2023-05-14T00:26:31.447Z,21.30
2023-05-14T00:27:31.431Z,21.30
2023-05-14T00:28:31.449Z,23.40
2023-05-14T00:29:31.400Z,21.80
2023-05-14T00:30:41.165Z,22.90
2023-05-14T00:31:39.117Z,21.90
2023-05-14T00:32:38.934Z,23.00
2023-05-14T00:33:39.045Z,22.20
2023-05-14T00:34:41.202Z,22.60
2023-05-14T00:35:38.866Z,22.20
2023-05-14T00:36:40.102Z,21.40
2023-05-14T00:37:38.932Z,22.50
2023-05-14T00:38:38.889Z,20.80
2023-05-14T00:39:40.079Z,20.50
2023-05-14T00:40:38.855Z,20.80
2023-05-14T00:41:40.063Z,20.80
2023-05-14T00:42:31.270Z,19.70
2023-05-14T00:43:31.240Z,18.80
2023-05-14T00:44:31.213Z,19.40
2023-05-14T00:45:31.207Z,18.50
2023-05-14T00:46:31.255Z,18.20
2023-05-14T00:47:31.215Z,19.60
2023-05-14T00:48:31.173Z,18.80
2023-05-14T00:49:31.164Z,18.30
2023-05-14T00:50:31.163Z,19.30
2023-05-14T00:51:31.157Z,18.30
2023-05-14T00:52:31.149Z,18.40
2023-05-14T00:53:31.175Z,19.40
2023-05-14T00:54:31.089Z,17.50
2023-05-14T00:55:31.070Z,18.60
2023-05-14T00:56:31.066Z,17.90
2023-05-14T00:57:31.104Z,18.00
2023-05-14T00:58:31.011Z,17.50
2023-05-14T00:59:31.026Z,17.10
2023-05-14T01:00:31.035Z,17.10
2023-05-14T01:01:31.075Z,17.70
2023-05-14T01:02:30.999Z,17.30
2023-05-14T01:03:31.011Z,16.90
2023-05-14T01:04:30.980Z,19.10
2023-05-14T01:05:30.940Z,17.80
2023-05-14T01:06:30.907Z,18.30
2023-05-14T01:07:30.917Z,18.70
2023-05-14T01:08:30.892Z,16.40
2023-05-14T01:09:30.896Z,18.20
2023-05-14T01:10:30.880Z,18.70
2023-05-14T01:11:30.893Z,19.20
2023-05-14T01:12:30.835Z,18.40
2023-05-14T01:13:30.840Z,18.50
2023-05-14T01:14:30.813Z,18.30
2023-05-14T01:15:30.830Z,19.10
2023-05-14T01:16:30.810Z,18.10
2023-05-14T01:17:30.880Z,18.70
2023-05-14T01:18:30.782Z,18.50
2023-05-14T01:19:30.762Z,17.90
2023-05-14T01:20:30.738Z,17.50
2023-05-14T01:21:30.742Z,17.70
2023-05-14T01:22:30.748Z,17.10
2023-05-14T01:23:30.723Z,19.20
2023-05-14T01:24:30.695Z,18.50
2023-05-14T01:25:30.707Z,17.60
2023-05-14T01:26:30.703Z,18.30
2023-05-14T01:27:39.440Z,17.80
2023-05-14T01:28:30.643Z,16.70
2023-05-14T01:29:36.389Z,17.70
2023-05-14T01:30:58.540Z,17.20
2023-05-14T01:31:33.285Z,18.70
2023-05-14T01:32:53.515Z,17.90
2023-05-14T01:33:40.287Z,18.90
2023-05-14T01:35:01.409Z,18.90
2023-05-14T01:35:39.787Z,19.10
2023-05-14T01:36:36.700Z,18.70
2023-05-14T01:37:30.496Z,17.90
2023-05-14T01:38:45.844Z,19.40
2023-05-14T01:39:43.959Z,18.80
2023-05-14T01:40:30.478Z,19.70
2023-05-14T01:41:30.467Z,18.30
2023-05-14T01:42:41.839Z,18.90
2023-05-14T01:43:31.702Z,19.50
2023-05-14T01:44:31.856Z,20.50
2023-05-14T01:45:31.753Z,19.90
2023-05-14T01:46:35.629Z,20.10
2023-05-14T01:47:31.459Z,20.30
2023-05-14T01:48:30.417Z,21.50
2023-05-14T01:49:30.344Z,19.00
2023-05-14T01:50:30.355Z,21.60
2023-05-14T01:51:30.313Z,20.90
2023-05-14T01:52:32.236Z,21.40
2023-05-14T01:53:30.309Z,18.50
2023-05-14T01:54:30.269Z,22.20
2023-05-14T01:55:30.260Z,20.10
2023-05-14T01:56:35.114Z,20.10
2023-05-14T01:57:33.536Z,20.80
2023-05-14T01:58:37.281Z,20.90
2023-05-14T01:59:34.095Z,21.60
2023-05-14T02:00:45.037Z,22.50
2023-05-14T02:01:39.600Z,22.50
2023-05-14T02:02:37.757Z,22.60
2023-05-14T02:03:30.208Z,22.60
2023-05-14T02:04:30.595Z,21.20
2023-05-14T02:05:30.168Z,22.50
2023-05-14T02:06:30.113Z,23.60
2023-05-14T02:07:30.780Z,22.50
2023-05-14T02:08:30.087Z,19.70
2023-05-14T02:09:31.175Z,21.40
2023-05-14T02:10:30.177Z,21.90
2023-05-14T02:11:30.697Z,20.70
2023-05-14T02:12:40.778Z,21.10
2023-05-14T02:13:36.987Z,20.30
2023-05-14T02:14:31.059Z,21.50
2023-05-14T02:15:30.008Z,20.20
2023-05-14T02:16:30.044Z,19.60
2023-05-14T02:17:36.420Z,19.20
2023-05-14T02:18:51.590Z,20.70
2023-05-14T02:19:30.977Z,21.70
2023-05-14T02:20:29.961Z,21.90
2023-05-14T02:21:29.960Z,21.00
2023-05-14T02:22:29.905Z,20.60
2023-05-14T02:23:40.346Z,22.20
2023-05-14T02:24:34.069Z,22.90
2023-05-14T02:25:29.880Z,24.50
2023-05-14T02:26:41.798Z,26.40
2023-05-14T02:27:29.899Z,22.80
2023-05-14T02:28:35.796Z,24.50
2023-05-14T02:29:29.845Z,24.60
2023-05-14T02:30:32.736Z,24.50
2023-05-14T02:31:32.722Z,23.60
2023-05-14T02:32:30.873Z,23.90
2023-05-14T02:33:29.835Z,21.90
2023-05-14T02:34:29.743Z,23.70
2023-05-14T02:35:29.744Z,22.60
2023-05-14T02:36:29.778Z,23.00
2023-05-14T02:37:29.737Z,23.30
2023-05-14T02:38:29.720Z,24.60
2023-05-14T02:39:29.718Z,25.50
2023-05-14T02:40:30.678Z,25.70
2023-05-14T02:41:38.528Z,24.00
2023-05-14T02:42:39.643Z,22.80
2023-05-14T02:44:36.889Z,25.40
2023-05-14T02:46:21.730Z,25.20
2023-05-14T02:47:24.922Z,27.30
2023-05-14T02:48:24.112Z,22.30
2023-05-14T02:49:29.869Z,25.20
2023-05-14T02:50:28.319Z,24.30
2023-05-14T02:51:22.612Z,21.70
2023-05-14T02:52:23.965Z,22.70
2023-05-14T02:53:23.462Z,22.70
2023-05-14T02:54:21.020Z,23.00
2023-05-14T02:55:20.892Z,23.60
2023-05-14T02:56:20.976Z,23.10
2023-05-14T02:57:20.883Z,23.20
2023-05-14T02:58:24.554Z,22.60
2023-05-14T02:59:21.839Z,22.00
2023-05-14T03:00:20.808Z,22.30
2023-05-14T03:01:20.902Z,23.20
2023-05-14T03:02:20.834Z,21.00
2023-05-14T03:03:20.820Z,22.90
2023-05-14T03:04:20.743Z,22.50
2023-05-14T03:05:20.754Z,22.60
2023-05-14T03:06:20.742Z,22.90
2023-05-14T03:07:20.775Z,22.30
2023-05-14T03:08:20.705Z,22.70
2023-05-14T03:09:20.839Z,22.20
2023-05-14T03:10:20.718Z,22.20
2023-05-14T03:11:20.670Z,20.90
2023-05-14T03:12:20.653Z,23.70
2023-05-14T03:13:20.653Z,22.80
2023-05-14T03:14:20.657Z,23.50
2023-05-14T03:15:20.635Z,23.00
2023-05-14T03:16:20.727Z,22.80
2023-05-14T03:17:20.667Z,22.10
2023-05-14T03:18:20.619Z,23.60
2023-05-14T03:19:20.583Z,22.50
2023-05-14T03:20:20.618Z,23.50
2023-05-14T03:21:20.555Z,24.30
2023-05-14T03:22:20.534Z,23.50
2023-05-14T03:23:20.576Z,24.00
2023-05-14T03:24:20.523Z,26.80
2023-05-14T03:25:20.546Z,22.40
2023-05-14T03:26:20.545Z,22.00
2023-05-14T03:27:20.579Z,24.20
2023-05-14T03:28:20.508Z,21.50
2023-05-14T03:29:20.486Z,24.10
2023-05-14T03:30:20.595Z,23.40
2023-05-14T03:31:20.575Z,28.10
2023-05-14T03:32:20.480Z,24.70
2023-05-14T03:33:20.430Z,22.30
2023-05-14T03:34:20.529Z,24.00
2023-05-14T03:35:20.396Z,22.50
2023-05-14T03:36:20.386Z,22.50
2023-05-14T03:37:20.366Z,22.60
2023-05-14T03:38:20.375Z,24.90
2023-05-14T03:39:20.333Z,23.00
2023-05-14T03:40:20.301Z,22.70
2023-05-14T03:41:20.346Z,24.20
2023-05-14T03:42:20.286Z,23.70
2023-05-14T03:43:20.298Z,22.10
2023-05-14T03:44:20.272Z,23.40
2023-05-14T03:45:20.262Z,23.90
2023-05-14T03:46:20.253Z,25.20
2023-05-14T03:47:20.209Z,27.00
2023-05-14T03:48:20.518Z,27.70
2023-05-14T03:49:20.203Z,28.20
2023-05-14T03:50:20.268Z,28.50
2023-05-14T03:51:20.198Z,28.30
2023-05-14T03:52:20.173Z,25.90
2023-05-14T03:53:20.147Z,26.80
2023-05-14T03:54:20.159Z,26.60
2023-05-14T03:55:20.229Z,26.30
2023-05-14T03:56:20.104Z,25.20
2023-05-14T03:57:20.076Z,26.30
2023-05-14T03:58:20.089Z,25.30
2023-05-14T03:59:20.074Z,25.60
2023-05-14T04:00:20.135Z,25.10
2023-05-14T04:01:20.099Z,25.70
2023-05-14T04:02:20.190Z,26.10
2023-05-14T04:03:20.094Z,25.10
2023-05-14T04:04:20.094Z,25.40
2023-05-14T04:05:20.021Z,25.10
2023-05-14T04:06:20.051Z,25.70
2023-05-14T04:07:19.971Z,25.20
2023-05-14T04:08:20.055Z,25.20
2023-05-14T04:09:20.003Z,24.80
2023-05-14T04:10:19.963Z,24.40
2023-05-14T04:11:19.916Z,25.10
2023-05-14T04:12:19.895Z,23.70
2023-05-14T04:13:19.906Z,24.70
2023-05-14T04:14:19.875Z,24.00
2023-05-14T04:15:19.881Z,23.00
2023-05-14T04:16:20.001Z,22.60
2023-05-14T04:17:20.024Z,23.00
2023-05-14T04:18:19.836Z,23.20
2023-05-14T04:19:19.924Z,23.80
2023-05-14T04:20:19.829Z,22.40
2023-05-14T04:21:19.789Z,24.40
2023-05-14T04:22:19.851Z,22.90
2023-05-14T04:23:19.769Z,22.90
2023-05-14T04:24:19.786Z,23.10
2023-05-14T04:25:19.804Z,22.90
2023-05-14T04:26:19.786Z,23.60
2023-05-14T04:27:19.720Z,23.30
2023-05-14T04:28:19.720Z,21.70
2023-05-14T04:29:19.763Z,22.50
2023-05-14T04:30:19.699Z,22.80
2023-05-14T04:31:19.825Z,23.20
2023-05-14T04:32:19.717Z,22.90
2023-05-14T04:33:19.640Z,23.00
2023-05-14T04:34:19.670Z,22.50
2023-05-14T04:35:20.219Z,22.90
2023-05-14T04:36:19.659Z,23.20
2023-05-14T04:37:19.718Z,22.00
2023-05-14T04:38:19.589Z,21.60
2023-05-14T04:39:19.659Z,23.30
2023-05-14T04:40:19.598Z,22.00
2023-05-14T04:41:19.637Z,21.70
2023-05-14T04:42:19.548Z,23.10
2023-05-14T04:43:19.563Z,23.60
2023-05-14T04:44:19.580Z,21.10
2023-05-14T04:45:19.501Z,22.70
2023-05-14T04:46:19.512Z,22.40
2023-05-14T04:47:19.533Z,23.50
2023-05-14T04:48:19.447Z,22.10
2023-05-14T04:49:19.440Z,23.10
2023-05-14T04:50:19.444Z,24.50
2023-05-14T04:51:19.408Z,23.10
2023-05-14T04:52:19.425Z,23.40
2023-05-14T04:53:19.446Z,25.00
2023-05-14T04:54:19.462Z,24.10
2023-05-14T04:55:19.402Z,23.50
2023-05-14T04:56:19.341Z,23.10
2023-05-14T04:57:19.336Z,21.90
2023-05-14T04:58:19.334Z,23.10
2023-05-14T04:59:19.300Z,22.70
2023-05-14T05:00:19.336Z,21.80
2023-05-14T05:01:19.384Z,23.30
2023-05-14T05:02:19.433Z,23.70
2023-05-14T05:03:19.367Z,22.60
2023-05-14T05:04:19.351Z,23.40
2023-05-14T05:05:19.251Z,21.40
2023-05-14T05:06:19.337Z,23.00
2023-05-14T05:07:19.221Z,22.50
2023-05-14T05:08:19.248Z,22.30
2023-05-14T05:09:19.221Z,24.40
2023-05-14T05:10:19.267Z,22.30
2023-05-14T05:11:19.161Z,24.00
2023-05-14T05:12:19.264Z,23.80
2023-05-14T05:13:19.123Z,23.10
2023-05-14T05:14:19.146Z,23.70
2023-05-14T05:15:19.104Z,24.60
2023-05-14T05:16:19.181Z,23.40
2023-05-14T05:17:19.114Z,22.40
2023-05-14T05:18:19.067Z,23.40
2023-05-14T05:19:22.431Z,23.70
2023-05-14T05:20:20.047Z,25.00
2023-05-14T05:21:19.049Z,23.30
2023-05-14T05:22:19.026Z,24.10
2023-05-14T05:23:19.003Z,23.30
2023-05-14T05:24:19.051Z,22.40
2023-05-14T05:25:18.940Z,21.60
2023-05-14T05:26:18.943Z,23.40
2023-05-14T05:27:18.913Z,23.10
2023-05-14T05:28:18.946Z,23.60
2023-05-14T05:29:18.930Z,23.90
2023-05-14T05:30:18.906Z,23.90
2023-05-14T05:31:19.908Z,23.80
2023-05-14T05:32:18.905Z,23.20
2023-05-14T05:33:18.870Z,23.80
2023-05-14T05:34:18.860Z,23.40
2023-05-14T05:35:18.841Z,22.30
2023-05-14T05:36:18.869Z,23.00
2023-05-14T05:37:18.972Z,22.70
2023-05-14T05:38:18.798Z,23.10
2023-05-14T05:39:18.785Z,22.90
2023-05-14T05:40:18.758Z,23.60
2023-05-14T05:41:18.727Z,22.90
2023-05-14T05:42:18.809Z,23.00
2023-05-14T05:43:18.776Z,23.20
2023-05-14T05:44:18.749Z,21.20
2023-05-14T05:45:18.688Z,23.00
2023-05-14T05:46:18.724Z,21.90
2023-05-14T05:47:18.664Z,22.50
2023-05-14T05:48:18.650Z,22.50
2023-05-14T05:49:18.604Z,21.00
2023-05-14T05:50:20.218Z,22.40
2023-05-14T05:51:18.586Z,23.20
2023-05-14T05:52:18.581Z,23.50
2023-05-14T05:53:18.598Z,23.20
2023-05-14T05:54:18.628Z,22.80
2023-05-14T05:55:18.504Z,24.00
2023-05-14T05:56:18.521Z,22.70
2023-05-14T05:57:18.500Z,23.20
2023-05-14T05:58:18.519Z,22.70
2023-05-14T05:59:18.533Z,21.90
2023-05-14T06:00:18.440Z,22.00
2023-05-14T06:01:18.461Z,21.50
2023-05-14T06:02:18.465Z,22.10
2023-05-14T06:03:18.498Z,22.40
2023-05-14T06:04:18.389Z,20.90
2023-05-14T06:05:18.428Z,20.40
2023-05-14T06:06:18.369Z,20.90
2023-05-14T06:07:18.382Z,21.50
2023-05-14T06:08:18.348Z,21.30
2023-05-14T06:09:18.811Z,20.50
2023-05-14T06:10:19.031Z,20.90
2023-05-14T06:11:18.310Z,22.30
2023-05-14T06:12:18.280Z,21.20
2023-05-14T06:13:18.839Z,20.70
2023-05-14T06:14:18.239Z,21.70
2023-05-14T06:15:18.301Z,22.60
2023-05-14T06:16:18.366Z,22.00
2023-05-14T06:17:18.240Z,23.00
2023-05-14T06:18:18.199Z,23.10
2023-05-14T06:19:18.286Z,23.20
2023-05-14T06:20:18.356Z,23.40
2023-05-14T06:21:18.172Z,24.40
2023-05-14T06:22:18.157Z,23.70
2023-05-14T06:23:18.131Z,22.60
2023-05-14T06:24:18.106Z,23.40
2023-05-14T06:25:18.104Z,23.20
2023-05-14T06:26:18.073Z,22.80
2023-05-14T06:27:18.068Z,22.30
2023-05-14T06:28:18.074Z,22.80
2023-05-14T06:29:18.098Z,22.20
2023-05-14T06:30:18.039Z,23.20
2023-05-14T06:31:18.072Z,22.80
2023-05-14T06:32:18.165Z,21.50
2023-05-14T06:33:20.017Z,21.40
2023-05-14T06:34:17.976Z,21.60
2023-05-14T06:35:17.953Z,20.50
2023-05-14T06:36:18.015Z,21.30
2023-05-14T06:37:17.973Z,20.00
2023-05-14T06:38:17.956Z,20.70
2023-05-14T06:39:17.939Z,20.70
2023-05-14T06:40:17.939Z,20.30
2023-05-14T06:41:17.926Z,20.90
2023-05-14T06:42:17.929Z,20.10
2023-05-14T06:43:17.888Z,19.90
2023-05-14T06:44:17.875Z,19.80
2023-05-14T06:45:17.968Z,19.60
2023-05-14T06:46:17.849Z,20.00
2023-05-14T06:47:17.887Z,19.20
2023-05-14T06:48:17.916Z,20.30
2023-05-14T06:49:17.841Z,20.00
2023-05-14T06:50:17.765Z,19.90
2023-05-14T06:51:17.786Z,20.60
2023-05-14T06:52:17.855Z,20.00
2023-05-14T06:53:17.752Z,19.10
2023-05-14T06:54:17.797Z,20.00
2023-05-14T06:55:17.703Z,19.30
2023-05-14T06:56:17.682Z,19.20
2023-05-14T06:57:17.649Z,19.90
2023-05-14T06:58:17.808Z,18.80
2023-05-14T06:59:17.681Z,19.10
2023-05-14T07:00:17.707Z,18.40
2023-05-14T07:01:17.696Z,17.80
2023-05-14T07:02:17.719Z,17.20
2023-05-14T07:03:17.658Z,17.10
2023-05-14T07:04:17.604Z,16.90
2023-05-14T07:05:17.593Z,16.10
2023-05-14T07:06:17.578Z,16.70
2023-05-14T07:07:17.666Z,15.50
2023-05-14T07:08:17.597Z,14.70
2023-05-14T07:09:17.559Z,14.50
2023-05-14T07:10:17.503Z,15.00
2023-05-14T07:11:17.522Z,14.60
2023-05-14T07:12:17.505Z,13.70
2023-05-14T07:13:17.508Z,14.40
2023-05-14T07:14:17.507Z,13.80
2023-05-14T07:15:18.553Z,14.90
2023-05-14T07:16:18.997Z,14.20
2023-05-14T07:17:17.562Z,15.70
2023-05-14T07:18:19.122Z,13.80
2023-05-14T07:19:19.031Z,14.80
2023-05-14T07:20:18.904Z,14.20
2023-05-14T07:21:18.132Z,13.90
2023-05-14T07:22:17.463Z,13.60
2023-05-14T07:23:19.780Z,13.70
2023-05-14T07:24:18.701Z,14.50
2023-05-14T07:25:17.304Z,12.50
2023-05-14T07:26:17.289Z,12.70
2023-05-14T07:27:17.329Z,12.20
2023-05-14T07:28:17.256Z,12.80
2023-05-14T07:29:17.280Z,13.00
2023-05-14T07:30:17.273Z,12.30
2023-05-14T07:31:17.290Z,11.70
2023-05-14T07:32:17.227Z,11.50
2023-05-14T07:33:17.184Z,11.30
2023-05-14T07:34:17.195Z,11.70
2023-05-14T07:35:17.151Z,10.60
2023-05-14T07:36:17.185Z,10.30
2023-05-14T07:37:17.141Z,9.90
2023-05-14T07:38:17.135Z,9.70
2023-05-14T07:39:17.157Z,9.90
2023-05-14T07:40:17.183Z,10.60
2023-05-14T07:41:17.133Z,10.30
2023-05-14T07:42:28.039Z,10.50
2023-05-14T07:43:18.180Z,10.50
2023-05-14T07:44:17.097Z,9.90
2023-05-14T07:45:17.024Z,11.00
2023-05-14T07:46:17.088Z,10.10
2023-05-14T07:47:17.121Z,9.60
2023-05-14T07:48:17.243Z,9.80
2023-05-14T07:49:17.073Z,9.40
2023-05-14T07:50:16.939Z,8.70
2023-05-14T07:51:16.997Z,9.50
2023-05-14T07:52:16.938Z,10.20
2023-05-14T07:53:16.930Z,9.20
2023-05-14T07:54:17.046Z,8.80
2023-05-14T07:55:16.995Z,9.50
2023-05-14T07:56:16.934Z,8.10
2023-05-14T07:57:16.976Z,8.50
2023-05-14T07:58:16.876Z,8.00
2023-05-14T07:59:16.860Z,7.40
2023-05-14T08:00:16.847Z,7.90
2023-05-14T08:01:16.833Z,7.70
2023-05-14T08:02:17.176Z,8.00
2023-05-14T08:03:16.898Z,7.80
2023-05-14T08:04:16.797Z,8.70
2023-05-14T08:05:16.761Z,7.90
2023-05-14T08:06:16.800Z,9.20
2023-05-14T08:07:16.807Z,8.60
2023-05-14T08:08:16.780Z,7.20
2023-05-14T08:09:16.835Z,8.10
2023-05-14T08:10:16.816Z,7.90
2023-05-14T08:11:16.713Z,7.00
2023-05-14T08:12:16.719Z,6.90
2023-05-14T08:13:16.674Z,6.40
2023-05-14T08:14:16.690Z,6.80
2023-05-14T08:15:16.686Z,6.20
2023-05-14T08:16:16.686Z,5.90
2023-05-14T08:17:16.740Z,6.00
2023-05-14T08:18:16.580Z,6.90
2023-05-14T08:19:16.955Z,5.70
2023-05-14T08:20:16.563Z,6.00
2023-05-14T08:21:16.645Z,6.30
2023-05-14T08:22:16.552Z,6.80
2023-05-14T08:23:16.543Z,5.70
2023-05-14T08:24:16.664Z,5.10
2023-05-14T08:25:16.530Z,5.20
2023-05-14T08:26:16.487Z,5.40
2023-05-14T08:27:16.472Z,5.30
2023-05-14T08:28:16.480Z,5.00
2023-05-14T08:29:16.932Z,5.30
2023-05-14T08:30:16.442Z,5.40
2023-05-14T08:31:16.461Z,6.60
2023-05-14T08:32:23.531Z,5.30
2023-05-14T08:33:17.468Z,5.50
2023-05-14T08:34:16.439Z,5.30
2023-05-14T08:35:16.413Z,5.90
2023-05-14T08:36:16.405Z,5.70
2023-05-14T08:37:16.327Z,5.10
2023-05-14T08:38:16.389Z,4.60
2023-05-14T08:39:16.302Z,4.60
2023-05-14T08:40:16.343Z,5.30
2023-05-14T08:41:16.447Z,5.50
2023-05-14T08:42:16.336Z,4.70
2023-05-14T08:43:16.266Z,4.30
2023-05-14T08:44:16.255Z,5.20
2023-05-14T08:45:16.383Z,5.60
2023-05-14T08:46:16.262Z,4.60
2023-05-14T08:47:16.210Z,4.50
2023-05-14T08:48:16.282Z,4.60
2023-05-14T08:49:16.216Z,5.20
2023-05-14T08:50:16.275Z,4.80
2023-05-14T08:51:16.208Z,4.10
2023-05-14T08:52:16.138Z,5.00
2023-05-14T08:53:16.113Z,4.20
2023-05-14T08:54:16.157Z,4.20
2023-05-14T08:55:16.096Z,3.60
2023-05-14T08:56:16.133Z,4.30
2023-05-14T08:57:16.088Z,3.60
2023-05-14T08:58:16.043Z,4.40
2023-05-14T08:59:16.132Z,3.70
2023-05-14T09:00:16.039Z,4.70
2023-05-14T09:01:16.140Z,3.60
2023-05-14T09:02:16.007Z,3.20
2023-05-14T09:03:16.091Z,3.40
2023-05-14T09:04:16.081Z,3.60
2023-05-14T09:05:16.074Z,3.70
2023-05-14T09:06:16.125Z,4.10
2023-05-14T09:07:15.949Z,3.30
2023-05-14T09:08:15.903Z,4.70
2023-05-14T09:09:15.991Z,4.10
2023-05-14T09:10:15.994Z,4.60
2023-05-14T09:11:15.972Z,5.00
2023-05-14T09:12:16.970Z,3.60
2023-05-14T09:13:15.903Z,4.70
2023-05-14T09:14:15.949Z,4.10
2023-05-14T09:15:15.820Z,4.80
2023-05-14T09:16:15.923Z,3.40
2023-05-14T09:17:15.850Z,4.00
2023-05-14T09:18:15.858Z,3.90
2023-05-14T09:19:15.998Z,3.20
2023-05-14T09:20:15.925Z,3.50
2023-05-14T09:21:17.282Z,3.70
2023-05-14T09:22:18.966Z,4.30
2023-05-14T09:23:15.762Z,3.50
2023-05-14T09:24:15.844Z,3.10
2023-05-14T09:25:15.747Z,3.70
2023-05-14T09:26:15.830Z,3.60
2023-05-14T09:27:15.703Z,2.80
2023-05-14T09:28:15.734Z,4.50
2023-05-14T09:29:15.679Z,2.40
2023-05-14T09:30:15.642Z,3.60
2023-05-14T09:31:15.659Z,4.50
2023-05-14T09:32:15.660Z,4.00
2023-05-14T09:33:15.671Z,3.30
2023-05-14T09:34:15.561Z,3.90
2023-05-14T09:35:15.576Z,3.00
2023-05-14T09:36:15.577Z,3.50
2023-05-14T09:37:15.587Z,2.70
2023-05-14T09:38:15.593Z,2.70
2023-05-14T09:39:15.594Z,3.50
2023-05-14T09:40:15.589Z,3.50
2023-05-14T09:41:15.503Z,3.30
2023-05-14T09:42:15.475Z,3.20
2023-05-14T09:43:15.557Z,3.90
2023-05-14T09:44:15.486Z,2.60
2023-05-14T09:45:15.422Z,5.10
2023-05-14T09:46:15.416Z,4.00
2023-05-14T09:47:15.466Z,3.30
2023-05-14T09:48:15.429Z,2.60
2023-05-14T09:49:15.442Z,2.50
2023-05-14T09:50:15.432Z,4.00
2023-05-14T09:51:15.362Z,2.90
2023-05-14T09:52:15.449Z,2.80
2023-05-14T09:53:15.343Z,3.60
2023-05-14T09:54:15.352Z,3.00
2023-05-14T09:55:15.309Z,5.00
2023-05-14T09:56:15.364Z,2.60
2023-05-14T09:57:15.268Z,3.00
2023-05-14T09:58:15.256Z,3.30
2023-05-14T09:59:15.328Z,3.60
2023-05-14T10:00:15.205Z,2.30
2023-05-14T10:01:15.249Z,3.20
2023-05-14T10:02:15.204Z,4.60
2023-05-14T10:03:17.213Z,3.30
2023-05-14T10:04:16.149Z,4.20
2023-05-14T10:05:15.229Z,5.50
2023-05-14T10:06:15.176Z,3.10
2023-05-14T10:07:15.159Z,3.10
2023-05-14T10:08:15.104Z,3.90
2023-05-14T10:09:15.111Z,2.80
2023-05-14T10:10:15.110Z,3.40
2023-05-14T10:11:15.113Z,3.10
2023-05-14T10:12:15.158Z,2.60
2023-05-14T10:13:15.124Z,2.50
2023-05-14T10:14:16.155Z,3.00
2023-05-14T10:15:15.052Z,3.00
2023-05-14T10:16:15.058Z,2.40
2023-05-14T10:17:15.114Z,3.40
2023-05-14T10:18:15.136Z,4.40
2023-05-14T10:19:16.581Z,3.40
2023-05-14T10:20:15.051Z,3.00
2023-05-14T10:21:14.957Z,3.00
2023-05-14T10:22:15.499Z,2.80
2023-05-14T10:23:15.193Z,2.50
2023-05-14T10:24:15.778Z,4.70
2023-05-14T10:25:14.973Z,4.00
2023-05-14T10:26:15.881Z,4.60
2023-05-14T10:27:15.427Z,3.00
2023-05-14T10:28:14.864Z,2.50
2023-05-14T10:29:17.299Z,2.50
2023-05-14T10:30:16.305Z,2.70
2023-05-14T10:31:16.839Z,2.90
2023-05-14T10:32:14.858Z,3.90
2023-05-14T10:33:15.388Z,2.90
2023-05-14T10:34:14.877Z,3.60
2023-05-14T10:35:16.053Z,3.80
2023-05-14T10:36:14.781Z,3.80
2023-05-14T10:37:14.792Z,2.50
2023-05-14T10:38:14.777Z,4.10
2023-05-14T10:39:14.885Z,3.80
2023-05-14T10:40:14.783Z,4.00
2023-05-14T10:41:14.717Z,4.40
2023-05-14T10:42:14.730Z,3.40
2023-05-14T10:43:14.784Z,4.90
2023-05-14T10:44:14.663Z,4.10
2023-05-14T10:45:14.649Z,2.50
2023-05-14T10:46:14.774Z,4.70
2023-05-14T10:47:14.611Z,3.00
2023-05-14T10:48:14.655Z,4.70
2023-05-14T10:49:14.661Z,3.70
2023-05-14T10:50:14.666Z,4.30
2023-05-14T10:51:14.603Z,2.70
2023-05-14T10:52:16.001Z,2.90
2023-05-14T10:53:14.516Z,4.10
2023-05-14T10:54:14.559Z,3.50
2023-05-14T10:55:15.922Z,2.40
2023-05-14T10:56:15.315Z,2.20
2023-05-14T10:57:17.174Z,3.70
2023-05-14T10:58:15.135Z,2.00
2023-05-14T10:59:14.614Z,4.20
2023-05-14T11:00:14.929Z,2.70
2023-05-14T11:01:14.400Z,4.00
2023-05-14T11:02:15.179Z,3.40
2023-05-14T11:03:14.472Z,6.80
2023-05-14T11:04:14.592Z,3.10
2023-05-14T11:05:14.627Z,3.00
2023-05-14T11:06:15.316Z,3.30
2023-05-14T11:07:14.333Z,6.30
2023-05-14T11:08:14.454Z,2.90
2023-05-14T11:09:14.353Z,3.80
2023-05-14T11:10:14.335Z,3.10
2023-05-14T11:11:14.490Z,2.50
2023-05-14T11:12:14.290Z,4.40
2023-05-14T11:13:14.299Z,2.80
2023-05-14T11:14:14.247Z,3.10
2023-05-14T11:15:14.298Z,3.60
2023-05-14T11:16:22.915Z,3.30
2023-05-14T11:17:15.384Z,4.90
2023-05-14T11:18:15.340Z,2.30
2023-05-14T11:19:14.279Z,2.20
2023-05-14T11:20:14.194Z,2.90
2023-05-14T11:21:14.225Z,3.10
2023-05-14T11:22:14.174Z,2.60
2023-05-14T11:23:14.112Z,2.80
2023-05-14T11:24:14.151Z,2.40
2023-05-14T11:25:14.127Z,3.30
2023-05-14T11:26:14.174Z,2.20
2023-05-14T11:27:14.182Z,2.30
2023-05-14T11:28:14.074Z,3.50
2023-05-14T11:29:14.120Z,1.80
2023-05-14T11:30:14.114Z,3.10
2023-05-14T11:31:14.046Z,2.70
2023-05-14T11:32:14.078Z,1.90
2023-05-14T11:33:14.066Z,3.40
2023-05-14T11:34:14.019Z,3.00
2023-05-14T11:35:14.003Z,3.30
2023-05-14T11:36:13.973Z,3.30
2023-05-14T11:37:13.967Z,1.80
2023-05-14T11:38:14.009Z,2.10
2023-05-14T11:39:13.950Z,2.60
2023-05-14T11:40:13.941Z,1.80
2023-05-14T11:41:13.965Z,2.60
2023-05-14T11:42:13.915Z,3.00
2023-05-14T11:43:13.911Z,3.50
2023-05-14T11:44:13.970Z,1.90
2023-05-14T11:45:13.934Z,2.20
2023-05-14T11:46:13.907Z,2.60
2023-05-14T11:47:13.903Z,4.20
2023-05-14T11:48:13.953Z,3.60
2023-05-14T11:49:13.777Z,2.00
2023-05-14T11:50:13.975Z,2.00
2023-05-14T11:51:13.737Z,2.60
2023-05-14T11:52:13.864Z,2.10
2023-05-14T11:53:13.820Z,3.30
2023-05-14T11:54:13.760Z,5.30
2023-05-14T11:55:13.856Z,6.50
2023-05-14T11:56:13.701Z,2.30
2023-05-14T11:57:13.727Z,4.20
2023-05-14T11:58:13.668Z,3.00
2023-05-14T11:59:13.687Z,3.50
2023-05-14T12:00:13.648Z,3.00
2023-05-14T12:01:13.646Z,3.40
2023-05-14T12:02:13.625Z,3.10
2023-05-14T12:03:13.771Z,1.80
2023-05-14T12:04:13.631Z,3.60
2023-05-14T12:05:13.634Z,3.70
2023-05-14T12:06:13.576Z,2.30
2023-05-14T12:07:13.536Z,2.50
2023-05-14T12:08:13.575Z,2.10
2023-05-14T12:09:13.588Z,2.00
2023-05-14T12:10:13.642Z,2.70
2023-05-14T12:11:13.515Z,3.80
2023-05-14T12:12:13.488Z,2.70
2023-05-14T12:13:13.496Z,3.00
2023-05-14T12:14:13.586Z,2.80
2023-05-14T12:15:13.541Z,2.40
2023-05-14T12:16:13.569Z,2.00
2023-05-14T12:17:13.455Z,2.70
2023-05-14T12:18:23.487Z,4.70
2023-05-14T12:19:14.484Z,4.40
2023-05-14T12:20:13.374Z,5.40
2023-05-14T12:21:13.342Z,2.80
2023-05-14T12:22:13.476Z,2.50
2023-05-14T12:23:13.400Z,2.80
2023-05-14T12:24:13.331Z,2.20
2023-05-14T12:25:13.467Z,3.60
2023-05-14T12:26:13.389Z,2.40
2023-05-14T12:27:13.386Z,2.40
2023-05-14T12:28:13.321Z,2.80
2023-05-14T12:29:13.517Z,2.10
2023-05-14T12:30:21.328Z,2.30
2023-05-14T12:31:14.453Z,2.10
2023-05-14T12:32:13.210Z,5.20
2023-05-14T12:33:13.282Z,2.50
2023-05-14T12:34:13.211Z,2.20
2023-05-14T12:35:13.350Z,3.10
2023-05-14T12:36:21.171Z,2.30
2023-05-14T12:37:14.223Z,4.20
2023-05-14T12:38:13.264Z,3.30
2023-05-14T12:39:13.105Z,1.70
2023-05-14T12:40:13.324Z,1.90
2023-05-14T12:41:13.203Z,2.90
2023-05-14T12:42:13.098Z,3.20
2023-05-14T12:43:13.146Z,3.10
2023-05-14T12:44:13.049Z,2.40
2023-05-14T12:45:13.121Z,2.60
2023-05-14T12:46:13.010Z,2.50
2023-05-14T12:47:13.133Z,2.60
2023-05-14T12:48:13.023Z,3.40
2023-05-14T12:49:13.008Z,1.90
2023-05-14T12:50:13.142Z,3.30
2023-05-14T12:51:12.954Z,2.00
2023-05-14T12:53:12.963Z,2.70
2023-05-14T12:54:12.920Z,1.70
2023-05-14T12:55:12.995Z,3.50
2023-05-14T12:56:12.917Z,1.60
2023-05-14T12:57:12.877Z,2.90
2023-05-14T12:58:12.855Z,2.80
2023-05-14T12:59:14.601Z,1.90
2023-05-14T13:00:14.414Z,3.00
2023-05-14T13:01:13.123Z,2.60
2023-05-14T13:02:13.171Z,2.60
2023-05-14T13:03:12.925Z,2.00
2023-05-14T13:04:12.928Z,2.10
2023-05-14T13:05:12.858Z,2.70
2023-05-14T13:06:12.908Z,2.50